createdAt,value
2018-10-12T00:00:44.856Z,16.40
2018-10-12T00:01:44.849Z,45.50
2018-10-12T00:02:44.751Z,37.80
2018-10-12T00:03:45.538Z,20.00
2018-10-12T00:04:44.840Z,33.60
2018-10-12T00:05:45.804Z,124.30
2018-10-12T00:06:45.849Z,96.60
2018-10-12T00:07:44.747Z,62.20
2018-10-12T00:08:44.745Z,19.10
2018-10-12T00:09:44.744Z,80.90
2018-10-12T00:10:44.706Z,45.20
2018-10-12T00:11:44.690Z,15.40
2018-10-12T00:12:44.698Z,16.50
2018-10-12T00:13:44.680Z,127.40
2018-10-12T00:14:44.683Z,31.10
2018-10-12T00:15:44.712Z,35.70
2018-10-12T00:16:44.653Z,104.60
2018-10-12T00:17:44.634Z,85.40
2018-10-12T00:18:44.649Z,112.40
2018-10-12T00:19:44.702Z,40.80
2018-10-12T00:20:45.895Z,42.50
2018-10-12T00:21:44.617Z,22.90
2018-10-12T00:22:45.525Z,36.80
2018-10-12T00:23:44.574Z,15.90
2018-10-12T00:24:44.608Z,15.10
2018-10-12T00:25:44.577Z,53.30
2018-10-12T00:26:44.578Z,25.00
2018-10-12T00:31:27.779Z,14.80
2018-10-12T00:32:27.843Z,29.10
2018-10-12T00:33:27.611Z,49.80
2018-10-12T00:34:28.014Z,58.90
2018-10-12T00:35:27.232Z,78.20
2018-10-12T00:36:27.192Z,168.20
2018-10-12T00:37:27.232Z,127.40
2018-10-12T00:38:27.212Z,117.30
2018-10-12T00:39:27.136Z,106.50
2018-10-12T00:40:27.175Z,104.50
2018-10-12T00:41:27.175Z,92.90
2018-10-12T00:42:31.971Z,76.30
2018-10-12T00:43:27.300Z,82.20
2018-10-12T00:44:27.094Z,69.70
2018-10-12T00:45:28.085Z,78.50
2018-10-12T00:46:27.084Z,26.60
2018-10-12T00:47:27.020Z,99.60
2018-10-12T00:48:27.289Z,97.00
2018-10-12T00:49:48.550Z,50.40
2018-10-12T00:50:28.147Z,48.20
2018-10-12T00:51:27.252Z,32.90
2018-10-12T00:52:27.404Z,119.40
2018-10-12T00:53:27.185Z,71.60
2018-10-12T00:54:27.193Z,58.70
2018-10-12T00:55:27.063Z,36.10
2018-10-12T00:56:27.879Z,23.70
2018-10-12T00:57:27.941Z,40.40
2018-10-12T00:58:26.974Z,16.70
2018-10-12T00:59:26.964Z,20.80
2018-10-12T01:00:26.979Z,21.20
2018-10-12T01:01:26.908Z,20.80
2018-10-12T01:02:26.915Z,28.90
2018-10-12T01:03:26.839Z,17.40
2018-10-12T01:04:26.861Z,22.80
2018-10-12T01:05:27.920Z,48.80
2018-10-12T01:06:27.862Z,25.70
2018-10-12T01:07:26.849Z,41.20
2018-10-12T01:08:26.870Z,77.70
2018-10-12T01:09:26.869Z,76.60
2018-10-12T01:10:26.833Z,70.40
2018-10-12T01:11:26.870Z,18.30
2018-10-12T01:15:06.529Z,18.30
2018-10-12T01:16:06.588Z,43.10
2018-10-12T01:17:06.076Z,32.20
2018-10-12T01:18:05.896Z,63.30
2018-10-12T01:19:07.471Z,29.90
2018-10-12T01:20:05.682Z,72.30
2018-10-12T01:21:05.586Z,37.00
2018-10-12T01:22:05.641Z,82.20
2018-10-12T01:23:05.619Z,83.40
2018-10-12T01:24:06.429Z,89.60
2018-10-12T01:25:05.540Z,111.20
2018-10-12T01:26:05.560Z,38.10
2018-10-12T01:27:06.543Z,47.50
2018-10-12T01:28:27.568Z,37.20
2018-10-12T01:29:06.423Z,37.60
2018-10-12T01:30:06.492Z,50.70
2018-10-12T01:31:05.604Z,91.40
2018-10-12T01:32:05.455Z,47.30
2018-10-12T01:33:05.485Z,34.70
2018-10-12T01:34:05.436Z,21.40
2018-10-12T01:35:27.180Z,30.70
2018-10-12T01:36:06.512Z,46.00
2018-10-12T01:37:05.482Z,43.70
2018-10-12T01:38:28.353Z,39.30
2018-10-12T01:39:05.903Z,41.00
2018-10-12T01:40:05.521Z,39.80
2018-10-12T01:41:05.711Z,25.00
2018-10-12T01:42:05.460Z,57.60
2018-10-12T01:45:29.496Z,42.70
2018-10-12T01:46:29.009Z,30.60
2018-10-12T01:49:00.572Z,65.40
2018-10-12T01:50:00.408Z,81.70
2018-10-12T01:51:00.659Z,53.30
2018-10-12T01:52:12.700Z,61.40
2018-10-12T01:53:00.917Z,145.60
2018-10-12T01:54:00.210Z,33.20
2018-10-12T01:55:01.493Z,59.30
2018-10-12T01:55:59.979Z,53.90
2018-10-12T01:56:59.904Z,29.10
2018-10-12T01:58:21.674Z,69.90
2018-10-12T01:59:00.698Z,51.30
2018-10-12T01:59:59.847Z,30.40
2018-10-12T02:00:59.871Z,104.30
2018-10-12T02:02:00.862Z,120.10
2018-10-12T02:02:59.847Z,83.80
2018-10-12T02:04:00.832Z,58.70
2018-10-12T02:05:00.671Z,107.50
2018-10-12T02:06:13.816Z,64.30
2018-10-12T02:07:01.296Z,73.50
2018-10-12T02:08:00.319Z,144.90
2018-10-12T02:09:00.274Z,82.60
2018-10-12T02:09:59.787Z,97.60
2018-10-12T02:10:59.800Z,128.10
2018-10-12T02:16:43.894Z,179.30
2018-10-12T02:17:44.290Z,125.90
2018-10-12T02:18:43.551Z,86.80
2018-10-12T02:19:43.441Z,79.10
2018-10-12T02:20:45.172Z,92.30
2018-10-12T02:21:44.230Z,55.20
2018-10-12T02:22:43.460Z,86.10
2018-10-12T02:23:43.526Z,71.00
2018-10-12T02:24:44.301Z,62.80
2018-10-12T02:25:43.498Z,64.00
2018-10-12T02:26:43.369Z,27.60
2018-10-12T02:32:03.158Z,93.00
2018-10-12T02:33:02.861Z,132.90
2018-10-12T02:34:02.811Z,84.50
2018-10-12T02:35:03.346Z,38.80
2018-10-12T02:36:20.138Z,44.60
2018-10-12T02:37:02.664Z,59.50
2018-10-12T02:38:03.171Z,54.90
2018-10-12T02:39:02.635Z,21.60
2018-10-12T02:40:02.442Z,46.60
2018-10-12T02:41:02.427Z,102.60
2018-10-12T02:42:02.382Z,66.60
2018-10-12T02:46:08.920Z,13.80
2018-10-12T02:46:35.998Z,60.10
2018-10-12T02:47:35.917Z,96.60
2018-10-12T02:48:35.812Z,70.80
2018-10-12T02:49:50.805Z,65.20
2018-10-12T02:50:36.158Z,38.60
2018-10-12T02:51:47.951Z,30.20
2018-10-12T02:52:36.306Z,78.50
2018-10-12T02:53:36.954Z,51.30
2018-10-12T02:54:35.821Z,69.90
2018-10-12T02:55:36.488Z,106.70
2018-10-12T02:56:51.917Z,116.80
2018-10-12T02:58:50.747Z,43.70
2018-10-12T02:59:51.531Z,40.80
2018-10-12T03:00:50.381Z,58.80
2018-10-12T03:01:50.205Z,16.50
2018-10-12T03:02:50.229Z,45.10
2018-10-12T03:03:50.148Z,21.60
2018-10-12T03:04:50.195Z,78.20
2018-10-12T03:05:50.200Z,28.50
2018-10-12T03:06:50.143Z,112.10
2018-10-12T03:07:50.152Z,78.40
2018-10-12T03:08:50.168Z,64.60
2018-10-12T03:09:50.139Z,54.30
2018-10-12T03:10:50.080Z,50.80
2018-10-12T03:11:51.085Z,52.50
2018-10-12T03:14:33.959Z,45.90
2018-10-12T03:15:01.788Z,104.50
2018-10-12T03:16:00.805Z,22.70
2018-10-12T03:17:00.750Z,98.80
2018-10-12T03:18:00.729Z,28.00
2018-10-12T03:19:00.783Z,60.20
2018-10-12T03:20:01.783Z,76.90
2018-10-12T03:21:00.754Z,27.20
2018-10-12T03:22:07.632Z,69.20
2018-10-12T03:23:01.857Z,45.10
2018-10-12T03:24:01.737Z,41.00
2018-10-12T03:32:06.301Z,20.10
2018-10-12T03:32:31.011Z,33.50
2018-10-12T03:33:37.064Z,22.70
2018-10-12T03:36:03.202Z,36.30
2018-10-12T03:42:45.192Z,42.80
2018-10-12T03:43:37.482Z,55.10
2018-10-12T03:45:24.293Z,54.40
2018-10-12T03:45:36.990Z,129.20
2018-10-12T03:46:41.426Z,35.50
2018-10-12T03:47:37.384Z,62.10
2018-10-12T03:48:36.874Z,67.20
2018-10-12T03:49:37.996Z,25.80
2018-10-12T03:50:58.367Z,98.10
2018-10-12T03:51:54.701Z,17.90
2018-10-12T03:52:59.045Z,77.50
2018-10-12T03:53:38.442Z,24.80
2018-10-12T03:57:11.894Z,15.00
2018-10-12T04:04:59.461Z,48.00
2018-10-12T04:05:50.251Z,27.30
2018-10-12T04:08:37.829Z,12.00
2018-10-12T04:09:31.064Z,53.40
2018-10-12T04:10:32.718Z,33.70
2018-10-12T04:11:31.999Z,116.60
2018-10-12T04:12:49.093Z,36.30
2018-10-12T04:15:38.944Z,23.40
2018-10-12T04:16:28.835Z,19.00
2018-10-12T04:17:58.947Z,28.50
2018-10-12T04:20:28.389Z,84.90
2018-10-12T04:26:25.855Z,30.60
2018-10-12T04:27:26.800Z,37.90
2018-10-12T04:28:44.440Z,49.60
2018-10-12T04:29:26.820Z,17.50
2018-10-12T04:30:26.750Z,69.60
2018-10-12T04:31:26.789Z,49.60
2018-10-12T04:32:25.743Z,65.00
2018-10-12T04:33:26.447Z,46.00
2018-10-12T04:34:26.742Z,74.30
2018-10-12T04:35:26.807Z,49.90
2018-10-12T04:36:27.288Z,94.00
2018-10-12T04:37:26.765Z,71.30
2018-10-12T04:38:25.734Z,29.10
2018-10-12T04:41:25.080Z,21.30
2018-10-12T04:48:55.653Z,77.60
2018-10-12T04:49:56.580Z,22.30
2018-10-12T04:50:55.609Z,104.00
2018-10-12T04:51:56.904Z,18.70
2018-10-12T04:52:56.031Z,141.20
2018-10-12T04:53:55.613Z,126.40
2018-10-12T05:07:03.453Z,48.50
2018-10-12T05:08:04.003Z,71.30
2018-10-12T05:09:03.329Z,70.70
2018-10-12T05:10:03.030Z,90.70
2018-10-12T05:11:03.580Z,23.30
2018-10-12T05:12:02.559Z,103.80
2018-10-12T05:53:36.548Z,144.00
2018-10-12T05:54:37.116Z,292.50
2018-10-12T05:55:36.214Z,653.80
2018-10-12T06:01:04.216Z,51.40
2018-10-12T06:02:03.756Z,58.20
2018-10-12T06:03:03.802Z,60.30
2018-10-12T06:06:05.228Z,22.40
2018-10-12T06:07:03.351Z,40.10
2018-10-12T06:08:03.404Z,56.80
2018-10-12T06:09:03.346Z,79.20
2018-10-12T06:10:03.324Z,81.60
2018-10-12T06:11:03.342Z,45.30
2018-10-12T06:12:03.275Z,68.80
2018-10-12T06:13:03.802Z,40.90
2018-10-12T06:14:03.275Z,66.30
2018-10-12T06:15:04.210Z,25.60
2018-10-12T06:16:03.233Z,44.50
2018-10-12T06:17:03.251Z,40.10
2018-10-12T06:18:03.209Z,71.20
2018-10-12T06:19:04.266Z,54.40
2018-10-12T06:20:04.833Z,37.90
2018-10-12T08:16:12.617Z,13.90
2018-10-12T08:35:34.236Z,13.40
2018-10-12T08:36:34.918Z,32.60
2018-10-12T08:37:33.695Z,13.10
2018-10-12T08:38:33.412Z,21.00
2018-10-12T08:39:34.183Z,21.70
2018-10-12T08:40:34.215Z,10.10
2018-10-12T08:41:34.749Z,10.30
2018-10-12T08:42:33.287Z,9.90
2018-10-12T08:44:43.749Z,5.10
2018-10-12T08:45:44.090Z,10.30
2018-10-12T08:46:43.857Z,11.70
2018-10-12T08:47:42.909Z,6.40
2018-10-12T08:48:42.866Z,5.30
2018-10-12T08:52:06.095Z,4.70
2018-10-12T08:53:05.911Z,5.20
2018-10-12T09:11:06.032Z,7.90
2018-10-12T09:26:44.710Z,4.40
2018-10-12T09:27:36.985Z,4.70
2018-10-12T09:28:44.151Z,4.50
2018-10-12T09:29:37.254Z,4.50
2018-10-12T09:30:37.087Z,4.90
2018-10-12T09:31:36.064Z,7.30
2018-10-12T09:32:38.028Z,5.70
2018-10-12T09:33:36.066Z,4.80
2018-10-12T09:34:36.067Z,4.60
2018-10-12T09:35:37.056Z,5.00
2018-10-12T09:36:36.023Z,9.50
2018-10-12T09:37:38.040Z,4.40
2018-10-12T09:38:36.877Z,24.90
2018-10-12T09:39:37.397Z,7.70
2018-10-12T09:40:35.855Z,5.90
2018-10-12T09:41:36.926Z,8.00
2018-10-12T09:42:35.888Z,7.80
2018-10-12T09:43:42.033Z,5.30
2018-10-12T09:44:35.906Z,5.90
2018-10-12T09:45:36.806Z,6.90
2018-10-12T09:46:35.742Z,8.90
2018-10-12T09:47:35.820Z,5.10
2018-10-12T09:50:18.460Z,32.30
2018-10-12T09:51:17.968Z,14.30
2018-10-12T09:52:18.538Z,7.10
2018-10-12T09:53:18.457Z,4.60
2018-10-12T09:54:17.858Z,5.60
2018-10-12T09:55:18.416Z,6.00
2018-10-12T09:56:18.763Z,6.00
2018-10-12T09:57:17.827Z,5.80
2018-10-12T09:58:17.883Z,4.40
2018-10-12T09:59:19.077Z,3.90
2018-10-12T10:00:18.776Z,7.70
2018-10-12T10:01:17.761Z,7.40
2018-10-12T10:02:17.876Z,5.80
2018-10-12T10:03:18.482Z,5.50
2018-10-12T10:04:17.682Z,5.10
2018-10-12T10:05:17.686Z,5.30
2018-10-12T10:06:17.765Z,6.50
2018-10-12T10:07:17.747Z,8.90
2018-10-12T10:08:18.753Z,5.50
2018-10-12T10:09:17.791Z,5.70
2018-10-12T10:10:17.746Z,4.80
2018-10-12T10:11:17.796Z,3.90
2018-10-12T10:12:18.068Z,5.10
2018-10-12T10:13:17.621Z,4.10
2018-10-12T10:17:33.294Z,3.20
2018-10-12T10:18:30.624Z,4.30
2018-10-12T10:19:30.221Z,4.00
2018-10-12T10:20:30.062Z,4.50
2018-10-12T10:21:30.077Z,3.70
2018-10-12T10:22:30.035Z,7.90
2018-10-12T10:23:30.017Z,4.10
2018-10-12T10:24:30.071Z,9.50
2018-10-12T10:25:29.972Z,13.30
2018-10-12T10:26:29.991Z,4.90
2018-10-12T10:27:30.014Z,5.00
2018-10-12T10:28:30.047Z,4.90
2018-10-12T10:29:52.050Z,4.40
2018-10-12T10:30:30.025Z,3.30
2018-10-12T10:31:31.006Z,3.30
2018-10-12T10:32:29.860Z,4.30
2018-10-12T10:33:29.893Z,5.10
2018-10-12T10:34:29.978Z,3.40
2018-10-12T10:35:30.876Z,5.80
2018-10-12T10:36:29.849Z,3.70
2018-10-12T10:37:29.926Z,3.20
2018-10-12T10:38:45.473Z,3.80
2018-10-12T10:39:30.147Z,6.40
2018-10-12T10:40:30.018Z,2.50
2018-10-12T10:41:35.480Z,3.20
2018-10-12T10:42:30.240Z,6.70
2018-10-12T10:43:29.907Z,7.70
2018-10-12T10:44:51.611Z,12.70
2018-10-12T10:45:29.991Z,6.40
2018-10-12T10:46:29.835Z,4.50
2018-10-12T10:47:30.797Z,3.40
2018-10-12T10:48:29.774Z,14.10
2018-10-12T10:49:29.798Z,6.70
2018-10-12T10:50:29.728Z,3.10
2018-10-12T10:51:29.662Z,5.90
2018-10-12T10:52:30.977Z,2.90
2018-10-12T10:53:29.924Z,2.90
2018-10-12T10:54:29.768Z,3.00
2018-10-12T10:55:30.053Z,3.30
2018-10-12T10:56:29.797Z,2.90
2018-10-12T10:57:29.756Z,2.90
2018-10-12T10:58:29.596Z,3.30
2018-10-12T10:59:29.598Z,2.90
2018-10-12T11:00:29.609Z,4.80
2018-10-12T11:01:29.559Z,2.90
2018-10-12T11:02:29.643Z,3.10
2018-10-12T11:03:30.410Z,4.50
2018-10-12T11:04:30.523Z,5.50
2018-10-12T11:05:29.523Z,4.60
2018-10-12T11:06:29.695Z,5.70
2018-10-12T11:07:29.584Z,4.80
2018-10-12T11:08:29.558Z,3.20
2018-10-12T11:09:29.481Z,5.50
2018-10-12T11:10:29.471Z,2.30
2018-10-12T11:11:29.510Z,4.60
2018-10-12T11:12:29.495Z,2.50
2018-10-12T11:13:30.592Z,2.50
2018-10-12T11:14:29.487Z,3.00
2018-10-12T11:15:29.369Z,2.00
2018-10-12T11:16:29.386Z,1.70
2018-10-12T11:17:29.411Z,2.00
2018-10-12T11:18:29.464Z,2.70
2018-10-12T11:19:29.404Z,4.90
2018-10-12T11:20:30.344Z,3.30
2018-10-12T11:21:29.366Z,2.70
2018-10-12T11:22:30.343Z,4.70
2018-10-12T11:23:29.435Z,5.10
2018-10-12T11:24:29.378Z,3.30
2018-10-12T11:25:29.634Z,2.50
2018-10-12T11:26:29.989Z,3.10
2018-10-12T11:27:29.401Z,2.40
2018-10-12T11:28:31.118Z,5.70
2018-10-12T11:29:29.293Z,2.60
2018-10-12T11:30:29.434Z,4.10
2018-10-12T11:31:29.337Z,10.00
2018-10-12T11:32:29.238Z,5.00
2018-10-12T11:33:29.192Z,2.40
2018-10-12T11:34:29.547Z,3.00
2018-10-12T11:35:29.148Z,4.40
2018-10-12T11:36:29.307Z,6.50
2018-10-12T11:37:29.129Z,4.70
2018-10-12T11:38:29.229Z,3.20
2018-10-12T11:39:29.177Z,3.30
2018-10-12T11:40:29.134Z,3.70
2018-10-12T11:41:29.087Z,4.00
2018-10-12T11:42:29.158Z,3.20
2018-10-12T11:43:29.095Z,3.70
2018-10-12T11:44:29.089Z,2.80
2018-10-12T11:45:29.541Z,4.30
2018-10-12T11:46:29.050Z,3.70
2018-10-12T11:47:29.230Z,3.10
2018-10-12T11:48:29.192Z,3.50
2018-10-12T11:49:29.031Z,3.40
2018-10-12T11:50:29.022Z,5.80
2018-10-12T11:51:30.039Z,3.30
2018-10-12T11:52:29.061Z,4.50
2018-10-12T11:53:29.101Z,3.70
2018-10-12T11:54:29.011Z,3.30
2018-10-12T11:55:29.007Z,2.60
2018-10-12T11:56:28.947Z,3.20
2018-10-12T11:57:28.978Z,3.50
2018-10-12T11:58:28.956Z,6.50
2018-10-12T12:01:32.736Z,3.40
2018-10-12T12:02:32.519Z,4.60
2018-10-12T12:03:32.016Z,4.60
2018-10-12T12:04:31.251Z,9.20
2018-10-12T12:05:31.939Z,4.10
2018-10-12T12:06:31.098Z,4.30
2018-10-12T12:07:32.545Z,3.40
2018-10-12T12:08:31.888Z,3.60
2018-10-12T12:09:32.963Z,4.70
2018-10-12T12:10:31.280Z,3.10
2018-10-12T12:11:31.964Z,3.70
2018-10-12T12:12:32.914Z,4.60
2018-10-12T12:13:31.134Z,10.40
2018-10-12T12:14:31.043Z,12.40
2018-10-12T12:15:32.074Z,8.00
2018-10-12T12:16:31.071Z,7.00
2018-10-12T12:17:31.025Z,3.90
2018-10-12T12:18:31.028Z,4.30
2018-10-12T12:19:31.095Z,9.50
2018-10-12T12:20:31.246Z,8.90
2018-10-12T12:21:31.042Z,3.70
2018-10-12T12:22:31.006Z,3.20
2018-10-12T12:23:31.029Z,5.40
2018-10-12T12:24:30.971Z,3.90
2018-10-12T12:25:31.993Z,3.70
2018-10-12T12:26:30.980Z,3.10
2018-10-12T12:27:30.965Z,3.80
2018-10-12T12:28:31.920Z,3.20
2018-10-12T12:29:31.010Z,4.30
2018-10-12T12:30:30.929Z,3.90
2018-10-12T12:31:30.977Z,5.30
2018-10-12T12:32:31.904Z,4.20
2018-10-12T12:33:30.883Z,4.10
2018-10-12T12:34:30.935Z,3.70
2018-10-12T12:35:31.196Z,8.30
2018-10-12T12:36:30.836Z,5.10
2018-10-12T12:37:31.861Z,3.00
2018-10-12T12:38:31.382Z,3.90
2018-10-12T12:39:30.869Z,3.60
2018-10-12T12:40:30.796Z,5.30
2018-10-12T12:41:31.878Z,3.00
2018-10-12T12:42:30.777Z,7.00
2018-10-12T12:43:30.768Z,10.30
2018-10-12T12:44:31.375Z,11.00
2018-10-12T12:45:31.393Z,10.30
2018-10-12T12:46:30.729Z,13.60
2018-10-12T12:47:30.819Z,13.70
2018-10-12T12:48:30.973Z,17.10
2018-10-12T12:49:45.720Z,14.30
2018-10-12T12:50:31.225Z,15.70
2018-10-12T12:51:30.765Z,12.30
2018-10-12T12:52:30.807Z,15.10
2018-10-12T12:53:30.657Z,11.70
2018-10-12T12:54:30.719Z,16.40
2018-10-12T12:55:30.618Z,16.60
2018-10-12T12:56:31.742Z,15.40
2018-10-12T12:57:30.724Z,13.10
2018-10-12T12:58:30.537Z,11.50
2018-10-12T12:59:30.660Z,11.10
2018-10-12T13:00:31.565Z,12.10
2018-10-12T13:01:30.908Z,13.50
2018-10-12T13:02:31.400Z,13.40
2018-10-12T13:03:30.540Z,11.80
2018-10-12T13:04:30.594Z,13.10
2018-10-12T13:05:30.484Z,13.50
2018-10-12T13:06:30.569Z,25.30
2018-10-12T13:07:30.484Z,11.00
2018-10-12T13:08:30.449Z,16.60
2018-10-12T13:09:30.548Z,12.40
2018-10-12T13:10:30.583Z,11.80
2018-10-12T13:11:30.435Z,20.40
2018-10-12T13:12:30.519Z,11.30
2018-10-12T13:13:30.405Z,10.70
2018-10-12T13:14:30.396Z,13.40
2018-10-12T13:15:30.977Z,16.10
2018-10-12T13:16:30.448Z,12.50
2018-10-12T13:17:30.361Z,11.40
2018-10-12T13:18:30.960Z,10.50
2018-10-12T13:19:30.370Z,11.90
2018-10-12T13:20:30.923Z,10.70
2018-10-12T13:21:30.331Z,10.30
2018-10-12T13:22:30.395Z,11.90
2018-10-12T13:23:30.300Z,11.20
2018-10-12T13:24:30.272Z,15.30
2018-10-12T13:25:30.307Z,11.10
2018-10-12T13:26:30.381Z,13.20
2018-10-12T13:27:30.327Z,11.30
2018-10-12T13:28:30.240Z,11.70
2018-10-12T13:29:30.257Z,11.20
2018-10-12T13:30:30.235Z,13.50
2018-10-12T13:31:30.427Z,14.20
2018-10-12T13:32:30.228Z,34.90
2018-10-12T13:33:30.199Z,12.90
2018-10-12T13:34:30.199Z,11.10
2018-10-12T13:35:30.162Z,12.80
2018-10-12T13:36:30.142Z,22.20
2018-10-12T13:37:30.151Z,18.50
2018-10-12T13:38:42.219Z,13.30
2018-10-12T13:39:30.980Z,13.60
2018-10-12T13:40:30.410Z,13.50
2018-10-12T13:41:30.467Z,12.70
2018-10-12T13:42:30.228Z,11.50
2018-10-12T13:43:30.130Z,18.30
2018-10-12T13:44:51.192Z,14.80
2018-10-12T13:45:30.058Z,17.10
2018-10-12T13:46:30.047Z,11.70
2018-10-12T13:47:30.927Z,12.50
2018-10-12T13:48:30.023Z,11.40
2018-10-12T13:49:30.047Z,14.00
2018-10-12T13:50:29.942Z,9.90
2018-10-12T13:51:29.953Z,9.90
2018-10-12T13:52:30.974Z,11.40
2018-10-12T13:53:29.966Z,10.70
2018-10-12T13:54:29.948Z,11.10
2018-10-12T13:55:29.884Z,15.10
2018-10-12T13:56:29.904Z,12.50
2018-10-12T13:57:30.907Z,10.10
2018-10-12T13:58:29.875Z,11.00
2018-10-12T13:59:29.887Z,13.20
2018-10-12T14:00:30.073Z,11.50
2018-10-12T14:01:29.829Z,10.20
2018-10-12T14:02:29.810Z,12.60
2018-10-12T14:03:29.823Z,11.20
2018-10-12T14:04:29.849Z,13.70
2018-10-12T14:05:29.812Z,12.70
2018-10-12T14:06:29.790Z,12.90
2018-10-12T14:07:29.753Z,11.80
2018-10-12T14:08:29.840Z,10.70
2018-10-12T14:09:29.770Z,11.80
2018-10-12T14:10:29.778Z,11.40
2018-10-12T14:11:29.754Z,10.90
2018-10-12T14:12:29.785Z,10.60
2018-10-12T14:13:29.690Z,9.20
2018-10-12T14:14:29.927Z,9.70
2018-10-12T14:15:29.706Z,9.10
2018-10-12T14:16:29.729Z,11.60
2018-10-12T14:17:29.637Z,13.00
2018-10-12T14:18:29.752Z,9.70
2018-10-12T14:19:30.709Z,10.80
2018-10-12T14:20:29.615Z,10.20
2018-10-12T14:21:29.639Z,10.20
2018-10-12T14:22:29.642Z,9.20
2018-10-12T14:23:29.571Z,10.10
2018-10-12T14:24:29.637Z,10.30
2018-10-12T14:25:29.610Z,12.40
2018-10-12T14:26:29.594Z,11.20
2018-10-12T14:27:29.613Z,9.00
2018-10-12T14:28:29.611Z,9.60
2018-10-12T14:29:29.682Z,9.40
2018-10-12T14:30:29.537Z,10.40
2018-10-12T14:31:29.628Z,9.50
2018-10-12T14:32:29.532Z,11.90
2018-10-12T14:33:29.526Z,9.60
2018-10-12T14:34:29.521Z,8.20
2018-10-12T14:35:29.537Z,9.00
2018-10-12T14:36:29.474Z,11.80
2018-10-12T14:37:29.547Z,14.10
2018-10-12T14:38:29.647Z,13.30
2018-10-12T14:39:29.429Z,9.40
2018-10-12T14:40:29.499Z,10.90
2018-10-12T14:41:29.458Z,10.80
2018-10-12T14:42:29.877Z,9.80
2018-10-12T14:43:30.448Z,19.70
2018-10-12T14:44:29.397Z,10.70
2018-10-12T14:45:29.372Z,10.10
2018-10-12T14:46:29.376Z,8.40
2018-10-12T14:47:29.317Z,8.20
2018-10-12T14:48:29.384Z,10.20
2018-10-12T14:49:29.378Z,8.80
2018-10-12T14:50:29.318Z,10.20
2018-10-12T14:51:29.317Z,9.70
2018-10-12T14:52:29.307Z,11.30
2018-10-12T14:53:29.364Z,10.30
2018-10-12T14:54:29.339Z,11.40
2018-10-12T14:55:29.290Z,13.50
2018-10-12T14:56:29.293Z,11.70
2018-10-12T14:57:29.257Z,8.70
2018-10-12T14:58:29.224Z,9.10
2018-10-12T14:59:29.177Z,9.60
2018-10-12T15:00:29.254Z,10.20
2018-10-12T15:01:30.221Z,9.50
2018-10-12T15:02:29.209Z,10.70
2018-10-12T15:03:29.175Z,11.50
2018-10-12T15:04:29.200Z,10.70
2018-10-12T15:05:29.219Z,13.10
2018-10-12T15:06:29.192Z,13.70
2018-10-12T15:07:29.171Z,10.60
2018-10-12T15:08:29.109Z,9.70
2018-10-12T15:09:29.115Z,10.70
2018-10-12T15:10:29.064Z,13.50
2018-10-12T15:11:30.019Z,11.00
2018-10-12T15:12:29.102Z,11.70
2018-10-12T15:13:29.106Z,10.90
2018-10-12T15:14:29.069Z,10.00
2018-10-12T15:15:29.111Z,11.60
2018-10-12T15:16:29.068Z,11.40
2018-10-12T15:17:29.074Z,9.10
2018-10-12T15:18:28.989Z,15.50
2018-10-12T15:19:29.092Z,9.50
2018-10-12T15:20:28.952Z,11.20
2018-10-12T15:21:29.394Z,11.70
2018-10-12T15:22:28.975Z,9.90
2018-10-12T15:23:29.947Z,10.80
2018-10-12T15:24:29.157Z,10.80
2018-10-12T15:25:29.021Z,9.90
2018-10-12T15:26:28.965Z,14.70
2018-10-12T15:27:28.996Z,13.30
2018-10-12T15:28:28.911Z,11.10
2018-10-12T15:29:28.845Z,13.10
2018-10-12T15:30:28.862Z,9.20
2018-10-12T15:31:28.866Z,11.30
2018-10-12T15:32:28.837Z,10.70
2018-10-12T15:33:28.914Z,10.00
2018-10-12T15:34:28.848Z,10.00
2018-10-12T15:35:28.819Z,11.80
2018-10-12T15:36:28.933Z,12.80
2018-10-12T15:37:28.982Z,11.50
2018-10-12T15:38:29.909Z,10.20
2018-10-12T15:39:28.809Z,11.80
2018-10-12T15:40:28.777Z,11.00
2018-10-12T15:41:28.759Z,10.20
2018-10-12T15:42:28.743Z,15.20
2018-10-12T15:43:28.696Z,12.10
2018-10-12T15:44:28.714Z,11.50
2018-10-12T15:45:28.670Z,13.70
2018-10-12T15:46:28.657Z,12.90
2018-10-12T15:47:28.684Z,14.00
2018-10-12T15:48:28.702Z,13.00
2018-10-12T15:49:28.620Z,12.50
2018-10-12T15:50:28.655Z,10.90
2018-10-12T15:51:28.658Z,15.00
2018-10-12T15:52:28.609Z,19.70
2018-10-12T15:53:28.625Z,12.40
2018-10-12T15:54:28.592Z,11.80
2018-10-12T15:55:28.603Z,15.70
2018-10-12T15:56:28.566Z,13.60
2018-10-12T15:57:28.534Z,11.60
2018-10-12T15:58:28.561Z,13.20
2018-10-12T15:59:28.536Z,13.70
2018-10-12T16:00:28.579Z,12.40
2018-10-12T16:01:28.603Z,13.30
2018-10-12T16:02:28.491Z,12.90
2018-10-12T16:03:28.511Z,12.20
2018-10-12T16:04:28.480Z,11.10
2018-10-12T16:05:28.535Z,13.50
2018-10-12T16:06:28.512Z,16.30
2018-10-12T16:07:28.467Z,15.90
2018-10-12T16:08:28.518Z,12.20
2018-10-12T16:09:28.414Z,13.30
2018-10-12T16:10:28.386Z,13.40
2018-10-12T16:11:28.964Z,11.40
2018-10-12T16:12:28.389Z,17.10
2018-10-12T16:13:28.368Z,14.40
2018-10-12T16:14:28.389Z,13.10
2018-10-12T16:15:28.362Z,12.60
2018-10-12T16:16:28.384Z,14.50
2018-10-12T16:17:28.357Z,10.80
2018-10-12T16:18:28.307Z,21.30
2018-10-12T16:19:28.302Z,19.70
2018-10-12T16:20:28.301Z,15.00
2018-10-12T16:21:28.306Z,18.90
2018-10-12T16:22:28.308Z,15.20
2018-10-12T16:23:28.263Z,25.10
2018-10-12T16:24:28.251Z,19.60
2018-10-12T16:25:28.220Z,18.70
2018-10-12T16:26:28.222Z,22.30
2018-10-12T16:27:28.337Z,15.10
2018-10-12T16:28:28.531Z,17.30
2018-10-12T16:29:28.257Z,16.50
2018-10-12T16:30:29.234Z,14.50
2018-10-12T16:31:28.238Z,16.90
2018-10-12T16:32:28.251Z,13.20
2018-10-12T16:33:28.161Z,16.80
2018-10-12T16:34:28.264Z,22.80
2018-10-12T16:35:28.146Z,28.90
2018-10-12T16:36:28.997Z,23.70
2018-10-12T16:37:28.104Z,29.50
2018-10-12T16:38:28.966Z,20.80
2018-10-12T16:39:28.097Z,31.60
2018-10-12T16:40:29.386Z,22.40
2018-10-12T16:41:29.074Z,38.80
2018-10-12T16:42:28.125Z,27.40
2018-10-12T16:43:28.089Z,24.70
2018-10-12T16:44:29.122Z,25.60
2018-10-12T16:45:28.092Z,20.60
2018-10-12T16:46:28.051Z,25.90
2018-10-12T16:47:28.050Z,20.90
2018-10-12T16:48:27.976Z,35.60
2018-10-12T16:49:28.022Z,22.10
2018-10-12T16:50:28.492Z,19.40
2018-10-12T16:51:27.986Z,16.90
2018-10-12T16:52:27.976Z,17.50
2018-10-12T16:53:28.027Z,25.70
2018-10-12T16:54:31.276Z,16.70
2018-10-12T16:55:30.693Z,21.10
2018-10-12T16:56:27.967Z,34.70
2018-10-12T16:57:29.986Z,18.30
2018-10-12T16:58:28.993Z,27.20
2018-10-12T17:02:46.814Z,25.80
2018-10-12T17:03:46.003Z,30.20
2018-10-12T17:04:46.118Z,47.00
2018-10-12T17:05:45.799Z,22.70
2018-10-12T17:06:46.752Z,36.60
2018-10-12T17:07:45.720Z,40.40
2018-10-12T17:08:45.805Z,25.40
2018-10-12T17:09:45.689Z,35.30
2018-10-12T17:10:45.735Z,36.10
2018-10-12T17:11:46.850Z,22.60
2018-10-12T17:12:45.705Z,25.80
2018-10-12T17:13:45.651Z,37.30
2018-10-12T17:16:04.141Z,86.80
2018-10-12T17:16:57.822Z,61.40
2018-10-12T17:17:57.579Z,45.90
2018-10-12T17:18:57.423Z,49.50
2018-10-12T17:19:57.400Z,76.40
2018-10-12T17:20:57.459Z,60.20
2018-10-12T17:21:58.457Z,72.60
2018-10-12T17:22:57.327Z,84.70
2018-10-12T17:23:57.393Z,76.70
2018-10-12T17:24:58.331Z,68.20
2018-10-12T17:25:57.384Z,43.60
2018-10-12T17:26:57.368Z,49.00
2018-10-12T17:27:57.293Z,63.00
2018-10-12T17:28:57.335Z,91.80
2018-10-12T17:29:57.332Z,56.90
2018-10-12T17:30:57.268Z,35.50
2018-10-12T17:31:57.282Z,52.70
2018-10-12T17:32:57.242Z,34.50
2018-10-12T17:33:57.254Z,30.80
2018-10-12T17:34:57.214Z,38.30
2018-10-12T17:35:57.253Z,34.20
2018-10-12T17:36:57.239Z,34.00
2018-10-12T17:37:57.177Z,29.90
2018-10-12T17:38:57.190Z,29.40
2018-10-12T17:39:57.264Z,61.50
2018-10-12T17:40:57.218Z,35.00
2018-10-12T17:41:57.121Z,41.40
2018-10-12T17:42:57.161Z,35.80
2018-10-12T17:43:57.125Z,27.20
2018-10-12T17:44:57.207Z,44.00
2018-10-12T17:45:57.108Z,52.20
2018-10-12T17:46:57.078Z,45.70
2018-10-12T17:47:57.080Z,69.30
2018-10-12T17:48:57.091Z,49.00
2018-10-12T17:49:57.124Z,40.20
2018-10-12T17:50:57.078Z,90.90
2018-10-12T17:51:57.061Z,65.10
2018-10-12T17:52:57.105Z,69.50
2018-10-12T17:53:57.133Z,68.70
2018-10-12T17:54:56.996Z,37.10
2018-10-12T17:55:57.027Z,58.60
2018-10-12T17:56:57.013Z,42.70
2018-10-12T17:57:56.982Z,52.90
2018-10-12T17:58:56.922Z,62.30
2018-10-12T17:59:57.011Z,71.80
2018-10-12T18:00:56.970Z,87.10
2018-10-12T18:01:56.933Z,78.00
2018-10-12T18:02:56.896Z,84.70
2018-10-12T18:03:56.907Z,87.80